Time;durP1;ratioP1;P1;durP2;ratioP2;P2;SDS_P1;SDS_P2;PMS_P1;PMS_P2;Temp;Humidity;BMP_temperature;BMP_pressure;BME280_temperature;BME280_humidity;BME280_pressure;Samples;Min_cycle;Max_cycle;Signal;HPM_P1;HPM_P2
2021/10/31 00:00:39;;;;;;;7.13;2.55;;;10.20;99.90;;;;;;5079152;28;20029;-76
2021/10/31 00:03:05;;;;;;;10.38;2.92;;;10.20;99.90;;;;;;5078978;28;20036;-76
2021/10/31 00:05:30;;;;;;;7.00;2.33;;;10.20;99.90;;;;;;5060821;28;20043;-76
2021/10/31 00:07:56;;;;;;;8.35;3.03;;;10.10;99.90;;;;;;5078533;28;20020;-76
2021/10/31 00:10:21;;;;;;;9.13;2.63;;;10.10;99.90;;;;;;5078388;28;20024;-76
2021/10/31 00:12:47;;;;;;;12.52;3.65;;;10.10;99.90;;;;;;5071721;28;20017;-76
2021/10/31 00:15:13;;;;;;;7.28;2.67;;;10.10;99.90;;;;;;5058745;28;20108;-76
2021/10/31 00:17:39;;;;;;;8.68;3.20;;;10.00;99.90;;;;;;5065071;28;20048;-77
2021/10/31 00:20:08;;;;;;;11.35;3.17;;;10.00;99.90;;;;;;5078859;28;20031;-77
2021/10/31 00:22:34;;;;;;;5.63;2.53;;;10.00;99.90;;;;;;5078400;28;20028;-77
2021/10/31 00:25:00;;;;;;;10.93;4.03;;;10.00;99.90;;;;;;5078093;28;20024;-77
2021/10/31 00:27:25;;;;;;;9.20;3.03;;;10.00;99.90;;;;;;5077998;28;20423;-77
2021/10/31 00:29:51;;;;;;;6.57;3.40;;;10.00;99.90;;;;;;5077604;28;20116;-77
2021/10/31 00:32:17;;;;;;;10.68;3.47;;;10.10;99.90;;;;;;5079168;28;20028;-77
2021/10/31 00:34:42;;;;;;;10.25;3.63;;;10.10;99.90;;;;;;5079028;28;20021;-77
2021/10/31 00:37:08;;;;;;;11.13;4.38;;;10.10;99.90;;;;;;5076334;28;20032;-77
2021/10/31 00:39:33;;;;;;;10.18;4.43;;;10.10;99.90;;;;;;5040862;28;20029;-77
2021/10/31 00:41:59;;;;;;;10.63;4.35;;;10.10;99.90;;;;;;5053035;28;20028;-77
2021/10/31 00:44:25;;;;;;;10.77;4.07;;;10.10;99.90;;;;;;5060797;28;20016;-77
2021/10/31 00:46:50;;;;;;;11.10;4.55;;;10.10;99.90;;;;;;5078125;28;20043;-77
2021/10/31 00:49:16;;;;;;;7.20;4.07;;;10.10;99.90;;;;;;5058591;28;20541;-77
2021/10/31 00:51:42;;;;;;;16.58;4.70;;;10.00;99.90;;;;;;5058837;28;20036;-77
2021/10/31 00:54:08;;;;;;;10.00;4.07;;;10.00;99.90;;;;;;5040495;28;20486;-77
2021/10/31 00:56:34;;;;;;;12.60;4.57;;;10.00;99.90;;;;;;5058295;28;20033;-77
2021/10/31 00:59:00;;;;;;;10.73;4.75;;;10.10;99.90;;;;;;5058408;28;20032;-77
2021/10/31 01:01:28;;;;;;;14.00;4.95;;;10.10;99.90;;;;;;5058109;28;20033;-77
2021/10/31 01:03:56;;;;;;;12.73;4.80;;;10.10;99.90;;;;;;5067277;28;20013;-76
2021/10/31 01:06:47;;;;;;;10.93;4.63;;;10.00;99.90;;;;;;5078014;28;20039;-77
2021/10/31 01:09:44;;;;;;;12.60;4.50;;;10.00;99.90;;;;;;5077929;28;20035;-76
2021/10/31 01:12:28;;;;;;;16.35;5.75;;;9.90;99.90;;;;;;5077703;28;20032;-76
2021/10/31 01:15:27;;;;;;;11.88;5.57;;;9.90;99.90;;;;;;5078050;28;20025;-77
2021/10/31 01:18:19;;;;;;;9.80;5.10;;;9.80;99.90;;;;;;5060261;28;20082;-77
2021/10/31 01:21:06;;;;;;;13.68;5.57;;;9.80;99.90;;;;;;5076148;28;20051;-76
2021/10/31 01:23:54;;;;;;;13.60;5.78;;;9.70;99.90;;;;;;5063690;28;20024;-77
2021/10/31 01:26:47;;;;;;;10.77;5.15;;;9.70;99.90;;;;;;5081195;28;20031;-76
2021/10/31 01:29:27;;;;;;;13.13;5.82;;;10.40;99.90;;;;;;5081271;28;20021;-77
2021/10/31 01:32:19;;;;;;;17.40;6.40;;;9.70;99.90;;;;;;5081389;28;20044;-77
2021/10/31 01:35:22;;;;;;;12.57;6.47;;;9.70;99.90;;;;;;5077202;28;20051;-77
2021/10/31 01:38:14;;;;;;;20.55;5.82;;;9.70;99.90;;;;;;5079571;28;20113;-77
2021/10/31 01:40:47;;;;;;;13.13;7.30;;;9.70;99.90;;;;;;5082384;28;20025;-77
2021/10/31 01:43:36;;;;;;;13.38;6.30;;;9.70;99.90;;;;;;5045820;28;20037;-77
2021/10/31 01:46:04;;;;;;;18.08;6.25;;;9.70;99.90;;;;;;5077205;28;20053;-77
2021/10/31 01:48:40;;;;;;;14.40;6.22;;;9.70;99.90;;;;;;5081488;28;20024;-77
2021/10/31 01:51:16;;;;;;;12.65;6.18;;;9.70;99.90;;;;;;5063959;28;20036;-77
2021/10/31 01:53:55;;;;;;;15.90;6.43;;;9.70;99.90;;;;;;5063619;28;20030;-77
2021/10/31 01:56:22;;;;;;;14.55;7.22;;;9.70;99.90;;;;;;5062670;28;20066;-77
2021/10/31 01:59:01;;;;;;;14.07;6.82;;;9.70;99.90;;;;;;5081105;28;20024;-78
2021/10/31 02:01:30;;;;;;;13.93;6.13;;;9.70;99.90;;;;;;5080099;28;20033;-78
2021/10/31 02:04:00;;;;;;;17.73;6.38;;;9.80;99.90;;;;;;5080787;28;20028;-77
2021/10/31 02:06:27;;;;;;;14.90;6.45;;;9.80;99.90;;;;;;5080593;28;20029;-76
2021/10/31 02:08:55;;;;;;;13.02;6.32;;;9.80;99.90;;;;;;5062938;28;20021;-77
2021/10/31 02:11:22;;;;;;;13.73;6.30;;;9.70;99.90;;;;;;5062736;28;20052;-77
2021/10/31 02:13:52;;;;;;;22.50;6.38;;;9.80;99.90;;;;;;5066278;28;20040;-77
2021/10/31 02:16:19;;;;;;;11.63;5.68;;;9.80;99.90;;;;;;5042438;28;20028;-77
2021/10/31 02:18:46;;;;;;;20.70;6.68;;;9.80;99.90;;;;;;5043042;28;20395;-77
2021/10/31 02:21:16;;;;;;;11.98;5.97;;;9.80;99.90;;;;;;5060656;28;20017;-77
2021/10/31 02:23:44;;;;;;;10.10;5.47;;;9.80;99.90;;;;;;5060396;28;20025;-77
2021/10/31 02:26:09;;;;;;;12.10;5.18;;;9.80;99.90;;;;;;5042474;28;20027;-77
2021/10/31 02:28:38;;;;;;;12.05;5.75;;;9.80;99.90;;;;;;5060724;28;20108;-78
2021/10/31 02:31:03;;;;;;;18.02;5.85;;;9.80;99.90;;;;;;5042932;28;20043;-77
2021/10/31 02:33:29;;;;;;;11.70;6.10;;;9.80;99.90;;;;;;5060262;28;20111;-76
2021/10/31 02:35:55;;;;;;;11.75;5.30;;;9.80;99.90;;;;;;5042836;28;20013;-77
2021/10/31 02:38:21;;;;;;;10.02;4.70;;;9.80;99.90;;;;;;5060143;28;20036;-77
2021/10/31 02:40:46;;;;;;;15.02;5.22;;;9.70;99.90;;;;;;5060468;28;20029;-77
2021/10/31 02:43:12;;;;;;;9.82;4.10;;;9.70;99.90;;;;;;5060771;28;20029;-77
2021/10/31 02:45:37;;;;;;;8.02;4.10;;;9.70;99.90;;;;;;5060615;28;20013;-77
2021/10/31 02:48:11;;;;;;;20.38;5.47;;;9.70;99.90;;;;;;5064624;28;20025;-77
2021/10/31 02:50:41;;;;;;;10.38;4.90;;;9.60;99.90;;;;;;5079979;28;20021;-77
2021/10/31 02:53:44;;;;;;;11.57;4.97;;;9.60;99.90;;;;;;5078443;28;20489;-77
2021/10/31 02:56:17;;;;;;;9.38;5.43;;;9.70;99.90;;;;;;5061807;28;20093;-76
2021/10/31 02:58:48;;;;;;;12.48;5.10;;;9.70;99.90;;;;;;5061769;28;20483;-77
2021/10/31 03:01:16;;;;;;;10.75;4.75;;;9.70;99.90;;;;;;5079896;28;20021;-77
2021/10/31 03:03:42;;;;;;;14.18;6.65;;;9.70;99.90;;;;;;5080053;28;20017;-78
2021/10/31 03:06:09;;;;;;;14.40;4.97;;;9.70;99.90;;;;;;5078049;28;20024;-77
2021/10/31 03:08:35;;;;;;;10.13;4.85;;;9.70;99.90;;;;;;5079904;28;20016;-77
2021/10/31 03:11:04;;;;;;;10.73;3.58;;;9.70;99.90;;;;;;5071119;28;20524;-77
2021/10/31 03:13:30;;;;;;;9.57;4.00;;;9.70;99.90;;;;;;5059702;28;20021;-77
2021/10/31 03:15:56;;;;;;;9.93;3.90;;;9.70;99.90;;;;;;5042081;28;20025;-77
2021/10/31 03:18:22;;;;;;;17.83;4.88;;;9.60;99.90;;;;;;5041940;28;20099;-77
2021/10/31 03:20:48;;;;;;;13.05;5.55;;;9.60;99.90;;;;;;5059777;28;20102;-77
2021/10/31 03:23:13;;;;;;;11.20;4.35;;;9.60;99.90;;;;;;5067670;28;20386;-76
2021/10/31 03:25:39;;;;;;;11.10;4.38;;;10.00;99.90;;;;;;5047562;28;20017;-77
2021/10/31 03:28:05;;;;;;;9.88;4.88;;;9.60;99.90;;;;;;5059807;28;20397;-77
2021/10/31 03:30:31;;;;;;;14.10;4.05;;;9.60;99.90;;;;;;5059334;28;20418;-77
2021/10/31 03:32:57;;;;;;;8.20;3.95;;;9.60;99.90;;;;;;5059570;28;20486;-77
2021/10/31 03:35:23;;;;;;;10.57;4.10;;;9.60;99.90;;;;;;5041195;28;20043;-77
2021/10/31 03:37:49;;;;;;;6.75;3.95;;;9.60;99.90;;;;;;5058595;28;20045;-77
2021/10/31 03:40:14;;;;;;;11.85;4.72;;;9.70;99.90;;;;;;5042675;28;20024;-77
2021/10/31 03:42:40;;;;;;;6.32;3.42;;;9.70;99.90;;;;;;5041582;28;20110;-77
2021/10/31 03:45:07;;;;;;;13.95;5.03;;;9.60;99.90;;;;;;5058501;28;20029;-77
2021/10/31 03:47:34;;;;;;;13.80;4.63;;;9.70;99.90;;;;;;5040370;28;20017;-77
2021/10/31 03:50:00;;;;;;;7.18;3.67;;;9.60;99.90;;;;;;5040698;28;20496;-77
2021/10/31 03:52:26;;;;;;;11.05;3.88;;;9.60;99.90;;;;;;5041051;28;20029;-77
2021/10/31 03:54:52;;;;;;;10.48;3.40;;;9.60;99.90;;;;;;5040647;28;20405;-76
2021/10/31 03:57:17;;;;;;;9.85;3.90;;;9.50;99.90;;;;;;5059532;28;20486;-77
2021/10/31 03:59:43;;;;;;;8.73;3.63;;;9.50;99.90;;;;;;5058296;28;20036;-76
2021/10/31 04:02:09;;;;;;;9.60;4.07;;;9.50;99.90;;;;;;5058502;28;20052;-77
2021/10/31 04:04:34;;;;;;;9.85;3.88;;;9.50;99.90;;;;;;5058771;28;20118;-78
2021/10/31 04:07:00;;;;;;;9.73;3.67;;;9.50;99.90;;;;;;5058394;28;20025;-78
2021/10/31 04:09:26;;;;;;;10.85;3.15;;;9.50;99.90;;;;;;5058758;28;20052;-77
2021/10/31 04:11:52;;;;;;;8.85;4.00;;;9.50;99.90;;;;;;5058590;28;20024;-78
2021/10/31 04:14:17;;;;;;;7.07;3.85;;;9.50;99.90;;;;;;5058850;28;20478;-77
2021/10/31 04:16:43;;;;;;;10.43;3.83;;;9.40;99.90;;;;;;5059781;28;20512;-78
2021/10/31 04:19:09;;;;;;;8.95;3.85;;;9.40;99.90;;;;;;5040728;28;20017;-77
2021/10/31 04:21:34;;;;;;;14.32;4.32;;;9.30;99.90;;;;;;5040744;28;20021;-78
2021/10/31 04:24:00;;;;;;;10.07;4.20;;;9.30;99.90;;;;;;5041091;28;20017;-78
2021/10/31 04:26:26;;;;;;;10.48;3.90;;;9.30;99.90;;;;;;5058993;28;20021;-77
2021/10/31 04:28:51;;;;;;;21.58;4.70;;;9.40;99.90;;;;;;5058227;28;20020;-77
2021/10/31 04:31:17;;;;;;;7.05;3.88;;;9.30;99.90;;;;;;5040442;28;20041;-77
2021/10/31 04:33:43;;;;;;;10.85;3.92;;;9.30;99.90;;;;;;5040102;28;20061;-77
2021/10/31 04:36:09;;;;;;;13.45;4.53;;;9.30;99.90;;;;;;5058381;28;20045;-77
2021/10/31 04:38:35;;;;;;;9.45;4.25;;;9.30;99.90;;;;;;5059007;28;20474;-77
2021/10/31 04:41:01;;;;;;;11.90;4.32;;;9.30;99.90;;;;;;5040309;28;20017;-77
2021/10/31 04:43:27;;;;;;;13.48;3.90;;;9.30;99.90;;;;;;5058079;28;20425;-78
2021/10/31 04:45:53;;;;;;;8.27;4.10;;;9.30;99.90;;;;;;5057961;28;20025;-78
2021/10/31 04:48:23;;;;;;;14.25;4.70;;;9.20;99.90;;;;;;5058219;28;20021;-78
2021/10/31 04:50:49;;;;;;;10.20;3.53;;;9.20;99.90;;;;;;5066857;28;20063;-78
2021/10/31 04:53:14;;;;;;;9.02;3.80;;;9.20;99.90;;;;;;5077761;28;20025;-77
2021/10/31 04:55:41;;;;;;;7.95;3.55;;;9.20;99.90;;;;;;5070044;28;20029;-78
2021/10/31 04:58:08;;;;;;;10.05;3.85;;;9.20;99.90;;;;;;5044214;28;20025;-78
2021/10/31 05:00:34;;;;;;;11.73;4.07;;;9.20;99.90;;;;;;5062422;28;20355;-77
2021/10/31 05:03:01;;;;;;;10.30;4.05;;;9.20;99.90;;;;;;5063205;28;20044;-77
2021/10/31 05:05:28;;;;;;;8.88;3.38;;;9.20;99.90;;;;;;5082286;28;20040;-77
2021/10/31 05:07:55;;;;;;;9.20;3.75;;;9.20;99.90;;;;;;5063393;28;20027;-77
2021/10/31 05:10:23;;;;;;;7.40;3.30;;;9.20;99.90;;;;;;5069881;28;20021;-77
2021/10/31 05:12:49;;;;;;;9.40;3.22;;;9.20;99.90;;;;;;5044220;28;20130;-77
2021/10/31 05:15:15;;;;;;;7.47;4.05;;;9.10;99.90;;;;;;5053390;28;20060;-77
2021/10/31 05:17:41;;;;;;;11.57;3.88;;;9.00;99.90;;;;;;5082620;28;20025;-77
2021/10/31 05:20:09;;;;;;;13.32;4.45;;;9.10;99.90;;;;;;5063479;28;20024;-78
2021/10/31 05:22:35;;;;;;;9.20;3.65;;;9.10;99.90;;;;;;5080770;28;20028;-78
2021/10/31 05:25:01;;;;;;;10.43;3.95;;;9.10;99.90;;;;;;5076497;28;20572;-77
2021/10/31 05:27:26;;;;;;;9.07;3.45;;;9.10;99.90;;;;;;5076465;28;20041;-78
2021/10/31 05:29:52;;;;;;;8.35;3.53;;;9.10;99.90;;;;;;5076255;28;20024;-77
2021/10/31 05:32:17;;;;;;;9.02;3.72;;;9.00;99.90;;;;;;5058619;28;20021;-77
2021/10/31 05:34:43;;;;;;;11.05;3.97;;;9.00;99.90;;;;;;5076408;28;20102;-77
2021/10/31 05:37:09;;;;;;;9.18;4.00;;;9.00;99.90;;;;;;5058571;28;20048;-76
2021/10/31 05:39:35;;;;;;;9.15;4.22;;;9.00;99.90;;;;;;5058270;28;20056;-77
2021/10/31 05:42:00;;;;;;;8.43;3.38;;;9.00;99.90;;;;;;5076723;28;20020;-77
2021/10/31 05:44:26;;;;;;;10.07;3.65;;;8.90;99.90;;;;;;5076171;28;20504;-77
2021/10/31 05:46:51;;;;;;;10.98;3.70;;;8.90;99.90;;;;;;5076101;28;20056;-77
2021/10/31 05:49:17;;;;;;;10.95;4.20;;;8.90;99.90;;;;;;5077504;28;20024;-77
2021/10/31 05:51:42;;;;;;;17.95;4.35;;;8.90;99.90;;;;;;5058474;28;20028;-77
2021/10/31 05:54:08;;;;;;;8.63;3.78;;;8.90;99.90;;;;;;5076679;28;20465;-77
2021/10/31 05:56:35;;;;;;;10.82;4.10;;;9.00;99.90;;;;;;5076023;28;20020;-78
2021/10/31 05:59:00;;;;;;;10.35;3.80;;;8.90;99.90;;;;;;5076624;28;20458;-76
2021/10/31 06:01:26;;;;;;;9.98;4.70;;;9.00;99.90;;;;;;5058097;28;20052;-78
2021/10/31 06:03:51;;;;;;;13.73;4.10;;;8.90;99.90;;;;;;5079326;28;20028;-79
2021/10/31 06:06:24;;;;;;;10.05;4.28;;;8.90;99.90;;;;;;5059910;28;20367;-79
2021/10/31 06:08:50;;;;;;;8.48;3.92;;;8.90;99.90;;;;;;5058704;28;20039;-79
2021/10/31 06:11:16;;;;;;;9.90;4.22;;;8.90;99.90;;;;;;5076761;28;20454;-75
2021/10/31 06:13:42;;;;;;;8.50;3.75;;;8.90;99.90;;;;;;5075590;28;20102;-75
2021/10/31 06:16:08;;;;;;;7.30;3.92;;;8.90;99.90;;;;;;5057616;28;20025;-76
2021/10/31 06:18:34;;;;;;;10.15;4.25;;;8.80;99.90;;;;;;5075824;28;20025;-79
2021/10/31 06:21:01;;;;;;;8.30;4.57;;;8.80;99.90;;;;;;5075870;28;20063;-77
2021/10/31 06:23:26;;;;;;;17.08;5.28;;;8.80;99.90;;;;;;5057680;28;20020;-78
2021/10/31 06:25:52;;;;;;;8.25;3.95;;;8.80;99.90;;;;;;5078807;28;20090;-80
2021/10/31 06:28:18;;;;;;;10.68;4.72;;;8.80;99.90;;;;;;5064113;28;20107;-80
2021/10/31 06:30:44;;;;;;;8.95;3.90;;;8.80;99.90;;;;;;5064282;28;20016;-79
2021/10/31 06:33:10;;;;;;;10.15;4.93;;;8.80;99.90;;;;;;5064802;28;20504;-79
2021/10/31 06:35:35;;;;;;;18.48;5.18;;;8.90;99.90;;;;;;5063012;28;20024;-81
2021/10/31 06:38:01;;;;;;;12.45;5.35;;;8.80;99.90;;;;;;5082304;28;20024;-80
2021/10/31 06:40:28;;;;;;;10.82;5.03;;;8.90;99.90;;;;;;5064976;28;20020;-81
2021/10/31 06:42:53;;;;;;;11.73;5.25;;;8.80;99.90;;;;;;5064304;28;20028;-80
2021/10/31 06:45:20;;;;;;;11.40;5.25;;;8.80;99.90;;;;;;5082066;28;20020;-79
2021/10/31 06:47:46;;;;;;;13.30;5.85;;;8.80;99.90;;;;;;5063696;28;20009;-79
2021/10/31 06:50:12;;;;;;;9.48;4.78;;;8.80;99.90;;;;;;5082029;28;20057;-79
2021/10/31 06:52:37;;;;;;;10.30;5.30;;;8.80;99.90;;;;;;5081033;28;20493;-80
2021/10/31 06:55:05;;;;;;;15.25;5.47;;;8.60;99.90;;;;;;5081543;28;20028;-80
2021/10/31 06:57:31;;;;;;;10.55;5.22;;;8.80;99.90;;;;;;5062643;28;20031;-80
2021/10/31 06:59:57;;;;;;;13.65;5.97;;;8.80;99.90;;;;;;5063872;28;20107;-79
2021/10/31 07:02:25;;;;;;;16.20;5.00;;;8.80;99.90;;;;;;5081855;28;20031;-79
2021/10/31 07:04:53;;;;;;;10.45;4.53;;;8.90;99.90;;;;;;5081536;28;20030;-79
2021/10/31 07:07:19;;;;;;;12.52;4.50;;;8.90;99.90;;;;;;5063950;28;20366;-80
2021/10/31 07:09:45;;;;;;;12.77;4.53;;;8.90;99.90;;;;;;5063865;28;20016;-79
2021/10/31 07:12:11;;;;;;;21.27;5.18;;;9.00;99.90;;;;;;5081732;28;20028;-80
2021/10/31 07:14:37;;;;;;;9.48;4.63;;;9.00;99.90;;;;;;5062786;28;20031;-80
2021/10/31 07:17:05;;;;;;;14.65;4.97;;;9.00;99.90;;;;;;5062945;28;20032;-80
2021/10/31 07:19:31;;;;;;;10.20;4.60;;;9.00;99.90;;;;;;5081711;28;20485;-80
2021/10/31 07:21:56;;;;;;;10.50;4.75;;;9.00;99.90;;;;;;5063895;28;20024;-80
2021/10/31 07:24:22;;;;;;;13.35;4.95;;;9.10;99.90;;;;;;5064468;28;20016;-79
2021/10/31 07:26:47;;;;;;;12.90;5.28;;;9.20;99.90;;;;;;5064426;28;20021;-81
2021/10/31 07:29:13;;;;;;;10.43;4.35;;;9.20;99.90;;;;;;5080610;28;20465;-80
2021/10/31 07:31:41;;;;;;;11.85;4.93;;;9.20;99.90;;;;;;5080469;28;20024;-80
2021/10/31 07:34:09;;;;;;;11.75;4.40;;;9.30;99.90;;;;;;5062157;28;20119;-79
2021/10/31 07:36:35;;;;;;;11.65;5.03;;;9.30;99.90;;;;;;5062082;28;20047;-79
2021/10/31 07:39:01;;;;;;;8.07;4.25;;;9.40;99.90;;;;;;5062429;28;20036;-81
2021/10/31 07:41:27;;;;;;;12.13;4.68;;;9.40;99.90;;;;;;5079831;28;20024;-80
2021/10/31 07:43:53;;;;;;;9.88;4.18;;;9.50;99.90;;;;;;5080597;28;20020;-79
2021/10/31 07:46:22;;;;;;;8.98;4.18;;;9.70;99.90;;;;;;5079646;28;20016;-79
2021/10/31 07:48:48;;;;;;;8.75;4.15;;;9.60;99.90;;;;;;5079186;28;20058;-78
2021/10/31 07:51:14;;;;;;;10.88;4.35;;;9.60;99.90;;;;;;5080902;28;20016;-78
2021/10/31 07:53:42;;;;;;;11.00;4.50;;;9.70;99.90;;;;;;5076832;28;20048;-79
2021/10/31 07:56:14;;;;;;;10.15;4.88;;;9.70;99.90;;;;;;5074865;28;20031;-78
2021/10/31 07:58:42;;;;;;;13.30;5.07;;;9.80;99.90;;;;;;5075404;28;20121;-79
2021/10/31 08:01:11;;;;;;;10.45;3.70;;;9.80;99.90;;;;;;5057380;28;20021;-78
2021/10/31 08:03:36;;;;;;;9.98;4.63;;;9.80;99.90;;;;;;5076183;28;20056;-79
2021/10/31 08:06:02;;;;;;;10.32;3.92;;;9.90;99.90;;;;;;5059084;28;20025;-79
2021/10/31 08:08:28;;;;;;;7.68;3.88;;;10.00;99.90;;;;;;5077025;28;20092;-79
2021/10/31 08:10:54;;;;;;;12.88;4.60;;;10.00;99.90;;;;;;5058618;28;20017;-80
2021/10/31 08:13:21;;;;;;;8.38;4.20;;;10.10;99.90;;;;;;5059157;28;20373;-79
2021/10/31 08:15:47;;;;;;;10.13;4.57;;;10.20;99.90;;;;;;5060330;28;20393;-80
2021/10/31 08:18:12;;;;;;;10.18;4.20;;;10.50;99.90;;;;;;5060109;28;20031;-80
2021/10/31 08:20:38;;;;;;;7.55;3.78;;;10.40;99.90;;;;;;5077109;28;20024;-80
2021/10/31 08:23:05;;;;;;;7.72;3.90;;;10.40;99.90;;;;;;5058877;28;20024;-78
2021/10/31 08:25:30;;;;;;;7.95;4.10;;;10.50;99.90;;;;;;5074927;28;20024;-78
2021/10/31 08:27:56;;;;;;;7.50;4.05;;;10.60;99.90;;;;;;5056911;28;20034;-80
2021/10/31 08:30:29;;;;;;;6.95;3.55;;;10.70;99.90;;;;;;5058291;28;20028;-79
2021/10/31 08:32:56;;;;;;;9.98;3.95;;;10.70;99.90;;;;;;5058735;28;20021;-79
2021/10/31 08:35:22;;;;;;;8.18;3.53;;;10.80;99.90;;;;;;5077293;28;20074;-79
2021/10/31 08:37:48;;;;;;;10.00;3.80;;;10.90;99.90;;;;;;5058504;28;20110;-79
2021/10/31 08:40:14;;;;;;;8.27;3.75;;;10.90;99.90;;;;;;5077239;28;20024;-80
2021/10/31 08:42:40;;;;;;;15.80;4.38;;;11.00;99.90;;;;;;5058152;28;20025;-79
2021/10/31 08:45:08;;;;;;;8.07;4.13;;;11.00;99.90;;;;;;5058896;28;20355;-77
2021/10/31 08:47:34;;;;;;;8.20;3.38;;;11.10;99.90;;;;;;5074401;28;20032;-77
2021/10/31 08:50:00;;;;;;;14.93;4.45;;;11.30;99.90;;;;;;5055995;28;20490;-77
2021/10/31 08:52:26;;;;;;;8.00;2.92;;;11.40;99.90;;;;;;5056909;28;20123;-78
2021/10/31 08:54:51;;;;;;;8.23;4.05;;;11.50;99.90;;;;;;5074003;28;20060;-77
2021/10/31 08:57:17;;;;;;;7.60;3.10;;;11.60;99.90;;;;;;5072935;28;20086;-78
2021/10/31 08:59:43;;;;;;;7.13;3.33;;;11.80;99.90;;;;;;5072978;28;20029;-77
2021/10/31 09:02:08;;;;;;;5.50;2.50;;;11.90;99.90;;;;;;5055009;28;20028;-78
2021/10/31 09:04:39;;;;;;;5.15;2.90;;;12.00;99.90;;;;;;5073178;28;20443;-77
2021/10/31 09:07:04;;;;;;;5.03;2.92;;;12.10;99.90;;;;;;5073236;28;20435;-78
2021/10/31 09:09:30;;;;;;;7.43;2.78;;;12.10;99.90;;;;;;5055062;28;20108;-78
2021/10/31 09:11:55;;;;;;;3.65;2.20;;;12.20;99.90;;;;;;5073002;28;20024;-78
2021/10/31 09:14:22;;;;;;;4.85;2.58;;;12.20;99.90;;;;;;5073485;28;20017;-77
2021/10/31 09:16:48;;;;;;;4.88;1.92;;;12.20;99.90;;;;;;5072690;28;20036;-76
2021/10/31 09:19:15;;;;;;;6.88;2.33;;;12.30;99.90;;;;;;5054813;28;20027;-76
2021/10/31 09:21:42;;;;;;;5.70;2.35;;;12.30;99.90;;;;;;5054734;28;20027;-75
2021/10/31 09:24:08;;;;;;;7.43;2.35;;;12.40;99.90;;;;;;5054868;28;20070;-78
2021/10/31 09:26:35;;;;;;;3.25;1.52;;;12.50;99.90;;;;;;5054661;28;20424;-73
2021/10/31 09:29:01;;;;;;;2.83;1.45;;;12.60;99.90;;;;;;5074489;28;20025;-75
2021/10/31 09:31:27;;;;;;;5.70;1.55;;;12.70;99.90;;;;;;5057818;28;20017;-75
2021/10/31 09:33:54;;;;;;;4.95;2.03;;;12.80;99.90;;;;;;5075856;28;20017;-75
2021/10/31 09:36:20;;;;;;;3.35;1.13;;;12.90;99.90;;;;;;5074874;28;20077;-76
2021/10/31 09:38:46;;;;;;;3.72;1.13;;;13.00;99.90;;;;;;5072500;28;20037;-75
2021/10/31 09:41:15;;;;;;;4.70;0.90;;;13.00;99.90;;;;;;5072680;28;20028;-74
2021/10/31 09:43:53;;;;;;;2.75;1.65;;;13.10;99.90;;;;;;5079219;28;20157;-74
2021/10/31 09:46:20;;;;;;;4.70;1.10;;;13.10;99.90;;;;;;5079074;28;20483;-74
2021/10/31 09:48:45;;;;;;;2.13;1.13;;;13.10;99.90;;;;;;5058929;28;20029;-75
2021/10/31 09:51:12;;;;;;;1.25;0.85;;;13.10;99.90;;;;;;5075233;28;20041;-75
2021/10/31 09:53:39;;;;;;;2.63;0.80;;;13.10;99.90;;;;;;5051594;28;20175;-75
2021/10/31 09:56:05;;;;;;;1.38;0.77;;;13.10;99.90;;;;;;5053389;28;20036;-77
2021/10/31 09:58:36;;;;;;;3.60;0.93;;;13.10;99.90;;;;;;5049514;28;20017;-76
2021/10/31 10:01:09;;;;;;;4.22;0.85;;;13.10;99.90;;;;;;5078016;28;20028;-77
2021/10/31 10:03:35;;;;;;;0.75;0.40;;;13.10;99.90;;;;;;5077369;28;20024;-76
2021/10/31 10:06:20;;;;;;;2.67;0.47;;;13.20;99.90;;;;;;5080321;28;20103;-77
2021/10/31 10:09:04;;;;;;;0.60;0.32;;;13.30;99.90;;;;;;5061857;28;20027;-76
2021/10/31 10:11:34;;;;;;;2.47;0.80;;;13.40;99.90;;;;;;5062335;28;20047;-76
2021/10/31 10:14:07;;;;;;;3.00;0.50;;;13.50;99.90;;;;;;5080372;28;20107;-76
2021/10/31 10:16:32;;;;;;;1.80;0.70;;;13.60;99.90;;;;;;5079521;28;20028;-76
2021/10/31 10:18:58;;;;;;;1.63;0.47;;;13.70;99.90;;;;;;5080672;28;20024;-75
2021/10/31 10:21:30;;;;;;;1.33;0.25;;;13.80;99.90;;;;;;5062059;28;20025;-72
2021/10/31 10:24:07;;;;;;;1.40;0.32;;;13.90;99.90;;;;;;5079872;28;20032;-73
2021/10/31 10:26:39;;;;;;;0.43;0.20;;;14.00;99.90;;;;;;5079974;28;20453;-73
2021/10/31 10:29:19;;;;;;;0.88;0.32;;;14.10;99.90;;;;;;5061639;28;20012;-74
2021/10/31 10:31:49;;;;;;;1.35;0.20;;;14.10;99.90;;;;;;5078538;28;20596;-74
2021/10/31 10:34:15;;;;;;;0.57;0.20;;;14.10;99.90;;;;;;5073976;28;20044;-74
2021/10/31 10:36:46;;;;;;;1.70;0.30;;;14.10;99.90;;;;;;5056547;28;20090;-74
2021/10/31 10:39:18;;;;;;;1.63;0.20;;;14.10;99.90;;;;;;5056677;28;20458;-73
2021/10/31 10:41:52;;;;;;;1.58;0.20;;;14.10;99.90;;;;;;5056852;28;20501;-73
2021/10/31 10:44:18;;;;;;;1.85;0.20;;;14.20;99.90;;;;;;5050331;28;20040;-74
2021/10/31 10:46:45;;;;;;;0.93;0.10;;;14.10;99.90;;;;;;5074862;28;20021;-73
2021/10/31 10:49:16;;;;;;;0.63;0.17;;;14.10;99.90;;;;;;5079735;28;20382;-73
2021/10/31 10:51:42;;;;;;;1.10;0.30;;;14.10;99.90;;;;;;5061481;28;20016;-73
2021/10/31 10:54:15;;;;;;;1.65;0.20;;;14.20;99.90;;;;;;5061676;28;20470;-73
2021/10/31 10:57:04;;;;;;;0.47;0.10;;;14.10;99.90;;;;;;5057669;28;20009;-73
2021/10/31 10:59:31;;;;;;;0.80;0.25;;;14.20;99.90;;;;;;5056692;28;20020;-73
2021/10/31 11:02:24;;;;;;;1.25;0.10;;;14.10;99.90;;;;;;5056695;28;20119;-73
2021/10/31 11:05:02;;;;;;;1.15;0.08;;;14.10;99.90;;;;;;5069929;28;20033;-74
2021/10/31 11:07:44;;;;;;;0.30;0.10;;;14.00;99.90;;;;;;5061699;28;20112;-73
2021/10/31 11:10:14;;;;;;;0.82;0.03;;;14.00;99.90;;;;;;5064557;28;20036;-74
2021/10/31 11:12:42;;;;;;;0.10;0.00;;;14.00;99.90;;;;;;5056409;28;20039;-74
2021/10/31 11:15:22;;;;;;;0.35;0.10;;;14.00;99.90;;;;;;5056103;28;20025;-74
2021/10/31 11:17:50;;;;;;;2.78;0.00;;;13.90;99.90;;;;;;5056358;28;20021;-73
2021/10/31 11:20:19;;;;;;;0.32;0.10;;;13.90;99.90;;;;;;5073696;28;20067;-73
2021/10/31 11:22:48;;;;;;;0.52;0.10;;;14.00;99.90;;;;;;5073988;28;20046;-73
2021/10/31 11:25:17;;;;;;;0.20;0.00;;;13.90;99.90;;;;;;5055756;28;20021;-74
2021/10/31 11:27:43;;;;;;;;;;;13.90;99.90;;;;;;5074252;28;20017;-73
2021/10/31 11:30:10;;;;;;;1.83;0.00;;;13.90;99.90;;;;;;5056155;28;19966;-74
2021/10/31 11:32:37;;;;;;;0.20;0.00;;;13.90;99.90;;;;;;5056032;28;20028;-74
2021/10/31 11:35:05;;;;;;;0.98;0.00;;;13.90;99.90;;;;;;5055761;28;20028;-74
2021/10/31 11:37:44;;;;;;;0.55;0.00;;;13.90;99.90;;;;;;5075200;28;20032;-75
2021/10/31 11:40:11;;;;;;;0.15;0.00;;;13.90;99.90;;;;;;5059821;28;20032;-74
2021/10/31 11:42:43;;;;;;;0.05;0.00;;;13.80;99.90;;;;;;5074290;28;20060;-75
2021/10/31 11:45:16;;;;;;;1.67;0.00;;;13.80;99.90;;;;;;5074193;28;20020;-74
2021/10/31 11:47:46;;;;;;;1.48;0.00;;;13.70;99.90;;;;;;5074799;28;20028;-72
2021/10/31 11:50:15;;;;;;;1.88;0.30;;;13.70;99.90;;;;;;5056521;28;20016;-74
2021/10/31 11:52:55;;;;;;;0.38;0.10;;;13.60;99.90;;;;;;5056238;28;20035;-72
2021/10/31 11:55:30;;;;;;;1.92;0.10;;;13.60;99.90;;;;;;5056450;28;20023;-74
2021/10/31 11:58:42;;;;;;;0.63;0.00;;;13.60;99.90;;;;;;5076501;28;20498;-74
2021/10/31 12:01:17;;;;;;;1.63;0.35;;;13.60;99.90;;;;;;5060399;28;20081;-73
2021/10/31 12:03:47;;;;;;;0.73;0.10;;;13.50;99.90;;;;;;5075138;28;20042;-73
2021/10/31 12:06:16;;;;;;;0.85;0.30;;;13.60;99.90;;;;;;5055717;28;20048;-72
2021/10/31 12:08:53;;;;;;;0.55;0.10;;;13.50;99.90;;;;;;5059933;28;20170;-73
2021/10/31 12:11:29;;;;;;;1.35;0.00;;;13.50;99.90;;;;;;5078586;28;20049;-71
2021/10/31 12:13:55;;;;;;;1.17;0.55;;;13.50;99.90;;;;;;5078271;28;20470;-73
2021/10/31 12:16:21;;;;;;;1.45;0.10;;;13.50;99.90;;;;;;5078585;28;20024;-74
2021/10/31 12:19:07;;;;;;;1.52;0.10;;;13.50;99.90;;;;;;5061025;28;20039;-73
2021/10/31 12:21:40;;;;;;;0.82;0.10;;;13.50;99.90;;;;;;5078500;28;20055;-73
2021/10/31 12:24:21;;;;;;;0.80;0.15;;;13.60;99.90;;;;;;5073814;28;20032;-76
2021/10/31 12:26:53;;;;;;;0.20;0.10;;;13.60;99.90;;;;;;5055381;28;20062;-74
2021/10/31 12:29:25;;;;;;;3.75;0.55;;;13.60;99.90;;;;;;5073305;28;20034;-74
2021/10/31 12:31:55;;;;;;;0.55;0.03;;;13.70;99.90;;;;;;5073296;28;20028;-74
2021/10/31 12:34:25;;;;;;;0.57;0.10;;;13.80;99.90;;;;;;5055185;28;20127;-72
2021/10/31 12:36:53;;;;;;;0.55;0.10;;;13.90;99.90;;;;;;5073197;28;20087;-73
2021/10/31 12:39:24;;;;;;;0.10;0.00;;;13.90;99.90;;;;;;5073064;28;20508;-73
2021/10/31 12:42:14;;;;;;;5.35;0.35;;;14.00;99.90;;;;;;5073223;28;20037;-73
2021/10/31 12:44:43;;;;;;;0.57;0.10;;;14.00;99.90;;;;;;5077929;28;20020;-73
2021/10/31 12:47:12;;;;;;;;;;;14.00;99.90;;;;;;5076104;28;20040;-73
2021/10/31 12:49:38;;;;;;;1.65;0.20;;;14.00;99.90;;;;;;5073071;28;19911;-72
2021/10/31 12:52:17;;;;;;;1.05;0.00;;;14.00;99.90;;;;;;5055001;28;20028;-72
2021/10/31 12:54:44;;;;;;;1.10;0.45;;;14.00;99.90;;;;;;5073235;28;20413;-71
2021/10/31 12:57:12;;;;;;;4.75;0.80;;;14.00;99.90;;;;;;5055622;28;20016;-74